Okolona, Arkansas
Current Conditions -  °F | °C
As of 2:56 PM on Friday 31 Oct 2014 (Local Time) from KADF Reporting Station
Few Clouds Few Clouds  
Wind Chill: 65°   Ceiling: Unl
Heat Index: 65°   Visibility: 10mi
Dew Point: 44°   Wind: 13mph
Humidity: 46%   Direction: 360°N
Pressure: 30.21"   Gusts: NA
Location:  34°N, 93.34°W
Report Text: KADF 311956Z AUTO 36011KT 320V030 10SM FEW050 18/07 A3021 RMK AO2 T01830066 SLP244
Loading
Personal Weather Stations






























Interactive Weather Map
Tropical Storm Tracking
New forecast layout! Learn more

10-Day Weather Forecast

Advertisements
Track Severe Weather on mobile